Time;durP1;ratioP1;P1;durP2;ratioP2;P2;SDS_P1;SDS_P2;PMS_P1;PMS_P2;Temp;Humidity;BMP_temperature;BMP_pressure;BME280_temperature;BME280_humidity;BME280_pressure;Samples;Min_cycle;Max_cycle;Signal;HPM_P1;HPM_P2
2023/06/24 00:02:07;;;;;;;;;;;;;;;;;;6216212;28;20255;-75
2023/06/24 00:05:09;;;;;;;6.88;3.80;;;;;;;;;;6215657;28;19932;-75
2023/06/24 00:08:11;;;;;;;11.60;4.27;;;;;;;;;;6214335;28;20046;-75
2023/06/24 00:11:13;;;;;;;5.20;3.13;;;;;;;;;;6215927;28;20065;-75
2023/06/24 00:14:17;;;;;;;11.07;3.80;;;;;;;;;;6215041;28;20050;-76
2023/06/24 00:17:22;;;;;;;6.65;3.38;;;;;;;;;;6215314;28;20580;-77
2023/06/24 00:20:26;;;;;;;12.10;3.97;;;;;;;;;;6213009;28;20109;-75
2023/06/24 00:23:30;;;;;;;17.63;4.53;;;;;;;;;;6215503;28;20077;-76
2023/06/24 00:26:32;;;;;;;6.95;3.47;;;;;;;;;;6211695;28;20503;-75
2023/06/24 00:29:37;;;;;;;9.48;3.38;;;;;;;;;;6217620;28;20342;-78
2023/06/24 00:32:39;;;;;;;6.72;3.42;;;;;;;;;;6214340;28;20346;-77
2023/06/24 00:35:41;;;;;;;6.95;3.22;;;;;;;;;;6207255;28;20274;-74
2023/06/24 00:38:43;;;;;;;9.45;3.40;;;;;;;;;;6213761;28;20062;-76
2023/06/24 00:41:48;;;;;;;11.85;4.25;;;;;;;;;;6213998;28;20338;-75
2023/06/24 00:44:51;;;;;;;9.95;3.42;;;;;;;;;;6214939;28;20113;-74
2023/06/24 00:47:54;;;;;;;19.90;5.03;;;;;;;;;;6213211;28;20346;-76
2023/06/24 00:50:58;;;;;;;16.65;4.68;;;;;;;;;;6215329;28;20061;-75
2023/06/24 00:54:00;;;;;;;17.48;4.15;;;;;;;;;;6214069;28;20050;-75
2023/06/24 00:57:02;;;;;;;15.30;4.57;;;;;;;;;;6214568;28;20054;-76
2023/06/24 01:00:09;;;;;;;9.10;3.63;;;;;;;;;;6213602;28;20058;-76
2023/06/24 01:03:13;;;;;;;12.95;3.75;;;;;;;;;;6215427;28;20122;-75
2023/06/24 01:06:16;;;;;;;17.35;3.85;;;;;;;;;;6214395;28;20049;-75
2023/06/24 01:09:17;;;;;;;5.78;2.75;;;;;;;;;;6216651;28;20045;-76
2023/06/24 01:12:19;;;;;;;7.75;3.40;;;;;;;;;;6213934;28;20045;-76
2023/06/24 01:15:22;;;;;;;8.35;3.30;;;;;;;;;;6216278;28;20294;-75
2023/06/24 01:18:31;;;;;;;11.57;3.83;;;;;;;;;;6212806;28;20076;-76
2023/06/24 01:21:39;;;;;;;7.25;3.97;;;;;;;;;;6214833;28;20058;-77
2023/06/24 01:24:52;;;;;;;11.73;3.78;;;;;;;;;;6214446;28;20088;-76
2023/06/24 01:28:08;;;;;;;14.63;4.17;;;;;;;;;;6213486;28;20054;-76
2023/06/24 01:31:39;;;;;;;11.88;4.10;;;;;;;;;;6216732;28;20346;-75
2023/06/24 01:34:45;;;;;;;8.65;3.95;;;;;;;;;;6184558;28;20049;-75
2023/06/24 01:37:50;;;;;;;31.00;5.90;;;;;;;;;;6216988;28;20495;-76
2023/06/24 01:40:52;;;;;;;30.20;6.28;;;;;;;;;;6217304;28;20120;-75
2023/06/24 01:43:56;;;;;;;35.80;7.53;;;;;;;;;;6214434;28;20104;-75
2023/06/24 01:47:00;;;;;;;22.75;5.80;;;;;;;;;;6215325;28;20050;-75
2023/06/24 01:50:03;;;;;;;21.13;5.45;;;;;;;;;;6202534;28;20057;-75
2023/06/24 01:53:07;;;;;;;14.77;4.50;;;;;;;;;;6188256;28;20397;-75
2023/06/24 01:56:11;;;;;;;10.65;4.03;;;;;;;;;;6206046;28;20246;-76
2023/06/24 01:59:14;;;;;;;7.53;3.33;;;;;;;;;;6215993;28;20346;-76
2023/06/24 02:02:20;;;;;;;6.28;3.45;;;;;;;;;;6213450;28;20042;-75
2023/06/24 02:05:22;;;;;;;16.55;4.97;;;;;;;;;;6213558;28;20246;-75
2023/06/24 02:08:24;;;;;;;11.00;4.03;;;;;;;;;;6212976;28;20376;-76
2023/06/24 02:11:27;;;;;;;8.13;3.78;;;;;;;;;;6216930;28;20278;-75
2023/06/24 02:14:29;;;;;;;;;;;;;;;;;;6215955;28;20274;-76
2023/06/24 02:17:32;;;;;;;6.32;3.58;;;;;;;;;;6213196;28;19924;-75
2023/06/24 02:20:34;;;;;;;6.07;3.22;;;;;;;;;;6218190;28;20278;-78
2023/06/24 02:23:36;;;;;;;7.88;3.55;;;;;;;;;;6217327;28;20069;-75
2023/06/24 02:26:40;;;;;;;5.20;3.50;;;;;;;;;;6220762;28;20050;-75
2023/06/24 02:29:43;;;;;;;5.45;3.30;;;;;;;;;;6217719;28;20050;-75
2023/06/24 02:32:46;;;;;;;5.10;3.30;;;;;;;;;;6219230;28;20050;-75
2023/06/24 02:35:48;;;;;;;4.45;2.95;;;;;;;;;;6219450;28;20050;-77
2023/06/24 02:38:49;;;;;;;8.02;3.35;;;;;;;;;;6219748;28;20357;-75
2023/06/24 02:41:51;;;;;;;8.30;3.88;;;;;;;;;;6215333;28;20065;-76
2023/06/24 02:44:53;;;;;;;5.03;2.85;;;;;;;;;;6220621;28;20070;-75
2023/06/24 02:47:57;;;;;;;5.40;3.35;;;;;;;;;;6219832;28;20054;-75
2023/06/24 02:50:59;;;;;;;7.50;3.65;;;;;;;;;;6218550;28;20054;-74
2023/06/24 02:54:02;;;;;;;6.55;3.50;;;;;;;;;;6216970;28;20049;-75
2023/06/24 02:57:06;;;;;;;5.20;3.60;;;;;;;;;;6216567;28;20104;-76
2023/06/24 03:00:12;;;;;;;7.63;3.65;;;;;;;;;;6216939;28;20042;-75
2023/06/24 03:03:15;;;;;;;6.28;3.28;;;;;;;;;;6218067;28;20085;-75
2023/06/24 03:06:17;;;;;;;4.47;3.20;;;;;;;;;;6216776;28;20050;-75
2023/06/24 03:09:19;;;;;;;6.47;3.10;;;;;;;;;;6218141;28;20061;-78
2023/06/24 03:12:21;;;;;;;9.07;3.13;;;;;;;;;;6215524;28;20298;-75
2023/06/24 03:15:23;;;;;;;6.03;3.67;;;;;;;;;;6218083;28;20438;-76
2023/06/24 03:18:26;;;;;;;7.82;3.33;;;;;;;;;;6218970;28;20109;-76
2023/06/24 03:21:28;;;;;;;;;;;;;;;;;;6217028;28;20056;-75
2023/06/24 03:24:30;;;;;;;5.50;3.03;;;;;;;;;;6214177;28;19926;-76
2023/06/24 03:27:33;;;;;;;4.43;2.88;;;;;;;;;;6216720;28;20046;-75
2023/06/24 03:30:35;;;;;;;3.75;2.75;;;;;;;;;;6218447;28;20056;-75
2023/06/24 03:33:44;;;;;;;5.05;3.50;;;;;;;;;;6214902;28;20104;-75
2023/06/24 03:36:48;;;;;;;4.93;2.80;;;;;;;;;;6217691;28;20050;-75
2023/06/24 03:39:50;;;;;;;4.50;3.05;;;;;;;;;;6217570;28;20389;-75
2023/06/24 03:42:52;;;;;;;8.05;2.85;;;;;;;;;;6214591;28;20050;-75
2023/06/24 03:45:54;;;;;;;5.22;3.00;;;;;;;;;;6216878;28;20054;-75
2023/06/24 03:48:58;;;;;;;5.53;2.70;;;;;;;;;;6216197;28;20234;-77
2023/06/24 03:51:59;;;;;;;5.13;2.90;;;;;;;;;;6217951;28;20054;-76
2023/06/24 03:55:04;;;;;;;7.10;2.70;;;;;;;;;;6215212;28;20589;-74
2023/06/24 03:58:06;;;;;;;9.48;3.33;;;;;;;;;;6217454;28;20210;-75
2023/06/24 04:01:09;;;;;;;6.22;2.85;;;;;;;;;;6214031;28;20065;-76
2023/06/24 04:04:12;;;;;;;7.85;2.88;;;;;;;;;;6213905;28;20058;-74
2023/06/24 04:07:14;;;;;;;3.60;2.60;;;;;;;;;;6216918;28;20046;-78
2023/06/24 04:10:16;;;;;;;4.25;3.03;;;;;;;;;;6215352;28;20050;-75
2023/06/24 04:13:18;;;;;;;4.53;2.63;;;;;;;;;;6213610;28;20109;-75
2023/06/24 04:16:19;;;;;;;3.22;2.50;;;;;;;;;;6218306;28;20050;-74
2023/06/24 04:19:23;;;;;;;5.32;2.75;;;;;;;;;;6217070;28;20057;-75
2023/06/24 04:22:26;;;;;;;4.70;2.67;;;;;;;;;;6216897;28;21232;-77
2023/06/24 04:25:27;;;;;;;5.50;2.57;;;;;;;;;;6215665;28;20054;-75
2023/06/24 04:28:29;;;;;;;6.80;2.90;;;;;;;;;;6214685;28;20064;-75
2023/06/24 04:31:31;;;;;;;4.97;2.72;;;;;;;;;;6216169;28;20354;-78
2023/06/24 04:34:34;;;;;;;4.70;2.60;;;;;;;;;;6213800;28;20053;-75
2023/06/24 04:37:36;;;;;;;5.22;3.00;;;;;;;;;;6215289;28;20278;-78
2023/06/24 04:40:38;;;;;;;4.50;2.60;;;;;;;;;;6214241;28;20050;-75
2023/06/24 04:43:39;;;;;;;7.93;2.63;;;;;;;;;;6214615;28;20050;-76
2023/06/24 04:46:42;;;;;;;9.23;3.03;;;;;;;;;;6213992;28;20051;-75
2023/06/24 04:49:45;;;;;;;4.45;2.97;;;;;;;;;;6215560;28;20394;-75
2023/06/24 04:52:54;;;;;;;3.95;2.53;;;;;;;;;;6212991;28;20612;-75
2023/06/24 04:55:55;;;;;;;4.32;2.90;;;;;;;;;;6213045;28;20054;-76
2023/06/24 04:58:57;;;;;;;5.97;3.15;;;;;;;;;;6216077;28;20364;-75
2023/06/24 05:01:59;;;;;;;4.63;2.85;;;;;;;;;;6215506;28;20121;-75
2023/06/24 05:05:02;;;;;;;6.00;2.88;;;;;;;;;;6211761;28;20046;-75
2023/06/24 05:08:04;;;;;;;7.88;2.83;;;;;;;;;;6213841;28;20353;-75
2023/06/24 05:11:06;;;;;;;3.78;2.85;;;;;;;;;;6212121;28;20046;-75
2023/06/24 05:14:08;;;;;;;5.82;3.08;;;;;;;;;;6214186;28;20338;-75
2023/06/24 05:17:10;;;;;;;5.38;3.10;;;;;;;;;;6215667;28;20069;-75
2023/06/24 05:20:17;;;;;;;4.25;2.35;;;;;;;;;;6215295;28;20054;-76
2023/06/24 05:23:19;;;;;;;7.32;2.70;;;;;;;;;;6214253;28;20049;-75
2023/06/24 05:26:21;;;;;;;4.28;2.70;;;;;;;;;;6215398;28;20053;-76
2023/06/24 05:29:22;;;;;;;4.95;3.00;;;;;;;;;;6217935;28;20133;-75
2023/06/24 05:32:24;;;;;;;4.88;2.85;;;;;;;;;;6214448;28;20062;-75
2023/06/24 05:35:28;;;;;;;8.45;3.35;;;;;;;;;;6216382;28;20049;-76
2023/06/24 05:38:29;;;;;;;;;;;;;;;;;;6214884;28;20054;-75
2023/06/24 05:41:31;;;;;;;5.22;3.00;;;;;;;;;;6215837;28;19937;-75
2023/06/24 05:44:33;;;;;;;6.00;2.80;;;;;;;;;;6211246;28;20054;-77
2023/06/24 05:47:35;;;;;;;11.57;3.80;;;;;;;;;;6214574;28;20082;-78
2023/06/24 05:50:38;;;;;;;6.80;3.33;;;;;;;;;;6215090;28;20054;-75
2023/06/24 05:53:40;;;;;;;8.95;3.10;;;;;;;;;;6217275;28;20072;-75
2023/06/24 05:56:41;;;;;;;6.95;3.63;;;;;;;;;;6216706;28;20108;-78
2023/06/24 05:59:43;;;;;;;7.07;3.00;;;;;;;;;;6219933;28;20124;-75
2023/06/24 06:02:45;;;;;;;7.07;3.22;;;;;;;;;;6217943;28;20267;-76
2023/06/24 06:05:48;;;;;;;4.68;3.38;;;;;;;;;;6216420;28;20063;-75
2023/06/24 06:08:50;;;;;;;10.38;3.88;;;;;;;;;;6218437;28;20150;-75
2023/06/24 06:11:51;;;;;;;6.53;3.20;;;;;;;;;;6216322;28;20058;-75
2023/06/24 06:14:53;;;;;;;8.02;3.65;;;;;;;;;;6216995;28;20057;-76
2023/06/24 06:17:55;;;;;;;12.18;3.55;;;;;;;;;;6219629;28;20053;-75
2023/06/24 06:20:58;;;;;;;6.22;3.70;;;;;;;;;;6220314;28;20046;-75
2023/06/24 06:24:00;;;;;;;4.65;3.38;;;;;;;;;;6218768;28;20046;-78
2023/06/24 06:27:01;;;;;;;8.43;3.53;;;;;;;;;;6218653;28;20038;-77
2023/06/24 06:30:04;;;;;;;8.50;3.30;;;;;;;;;;6219842;28;20305;-75
2023/06/24 06:33:06;;;;;;;6.63;3.15;;;;;;;;;;6217724;28;20250;-75
2023/06/24 06:36:09;;;;;;;19.67;3.65;;;;;;;;;;6217579;28;20062;-75
2023/06/24 06:39:11;;;;;;;;;;;;;;;;;;6217998;28;20050;-75
2023/06/24 06:42:14;;;;;;;4.72;3.03;;;;;;;;;;6219593;28;19918;-75
2023/06/24 06:45:16;;;;;;;5.28;3.25;;;;;;;;;;6218252;28;20073;-76
2023/06/24 06:48:18;;;;;;;7.45;3.55;;;;;;;;;;6217667;28;20052;-75
2023/06/24 06:51:21;;;;;;;3.70;2.65;;;;;;;;;;6218856;28;20266;-76
2023/06/24 06:54:23;;;;;;;8.63;4.10;;;;;;;;;;6216339;28;20061;-77
2023/06/24 06:57:25;;;;;;;5.30;3.10;;;;;;;;;;6216142;28;20041;-75
2023/06/24 07:00:26;;;;;;;6.18;3.30;;;;;;;;;;6217039;28;20070;-76
2023/06/24 07:03:29;;;;;;;7.82;3.22;;;;;;;;;;6216439;28;20057;-75
2023/06/24 07:06:33;;;;;;;5.97;3.03;;;;;;;;;;6213898;28;20073;-75
2023/06/24 07:10:06;;;;;;;6.13;3.17;;;;;;;;;;6218816;28;20056;-75
2023/06/24 07:13:08;;;;;;;3.80;2.70;;;;;;;;;;6209260;28;20046;-75
2023/06/24 07:16:10;;;;;;;6.13;2.50;;;;;;;;;;6216408;28;20057;-75
2023/06/24 07:19:11;;;;;;;6.70;2.78;;;;;;;;;;6214455;28;20046;-75
2023/06/24 07:22:15;;;;;;;8.10;2.55;;;;;;;;;;6217115;28;20061;-75
2023/06/24 07:25:16;;;;;;;6.93;2.78;;;;;;;;;;6217180;28;22038;-75
2023/06/24 07:28:18;;;;;;;6.82;2.85;;;;;;;;;;6215518;28;20058;-76
2023/06/24 07:31:20;;;;;;;5.65;3.08;;;;;;;;;;6216940;28;20062;-75
2023/06/24 07:34:22;;;;;;;6.85;3.47;;;;;;;;;;6216217;28;20065;-75
2023/06/24 07:37:25;;;;;;;6.45;3.33;;;;;;;;;;6214159;28;20058;-76
2023/06/24 07:40:27;;;;;;;;;;;;;;;;;;6217120;28;20054;-77
2023/06/24 07:43:28;;;;;;;9.00;3.58;;;;;;;;;;6215545;28;19924;-75
2023/06/24 07:46:30;;;;;;;7.40;3.55;;;;;;;;;;6214793;28;20046;-76
2023/06/24 07:49:32;;;;;;;6.22;3.35;;;;;;;;;;6218504;28;20058;-75
2023/06/24 07:52:35;;;;;;;6.72;3.97;;;;;;;;;;6218088;28;20112;-75
2023/06/24 07:55:37;;;;;;;6.10;3.80;;;;;;;;;;6214632;28;20680;-76
2023/06/24 07:58:39;;;;;;;8.80;3.93;;;;;;;;;;6216027;28;20065;-75
2023/06/24 08:01:40;;;;;;;12.10;4.70;;;;;;;;;;6216980;28;20054;-75
2023/06/24 08:04:42;;;;;;;6.13;3.53;;;;;;;;;;6212977;28;20400;-75
2023/06/24 08:07:45;;;;;;;5.33;3.50;;;;;;;;;;6217958;28;20322;-76
2023/06/24 08:10:47;;;;;;;5.70;3.28;;;;;;;;;;6217027;28;20524;-79
2023/06/24 08:13:49;;;;;;;5.18;3.72;;;;;;;;;;6216337;28;20305;-75
2023/06/24 08:16:51;;;;;;;5.78;3.80;;;;;;;;;;6216817;28;20068;-75
2023/06/24 08:19:52;;;;;;;7.23;3.90;;;;;;;;;;6217161;28;20073;-76
2023/06/24 08:22:55;;;;;;;7.10;3.30;;;;;;;;;;6215600;28;20050;-75
2023/06/24 08:25:57;;;;;;;7.28;3.30;;;;;;;;;;6212164;28;20346;-76
2023/06/24 08:28:59;;;;;;;7.40;3.47;;;;;;;;;;6215817;28;20317;-75
2023/06/24 08:32:01;;;;;;;4.38;3.15;;;;;;;;;;6215035;28;20081;-76
2023/06/24 08:35:03;;;;;;;6.05;3.42;;;;;;;;;;6214530;28;20334;-76
2023/06/24 08:38:06;;;;;;;7.47;3.77;;;;;;;;;;6213639;28;20053;-76
2023/06/24 08:41:08;;;;;;;6.75;3.53;;;;;;;;;;6217691;28;20634;-75
2023/06/24 08:44:10;;;;;;;6.20;3.38;;;;;;;;;;6215294;28;20227;-75
2023/06/24 08:47:14;;;;;;;7.68;3.17;;;;;;;;;;6216185;28;20050;-75
2023/06/24 08:50:16;;;;;;;5.40;3.33;;;;;;;;;;6214735;28;20050;-77
2023/06/24 08:53:22;;;;;;;6.50;3.25;;;;;;;;;;6214001;28;20269;-75
2023/06/24 08:56:24;;;;;;;3.88;2.97;;;;;;;;;;6215315;28;20057;-75
2023/06/24 08:59:28;;;;;;;4.80;3.50;;;;;;;;;;6215296;28;20041;-77
2023/06/24 09:02:32;;;;;;;3.70;3.25;;;;;;;;;;6214222;28;20069;-77
2023/06/24 09:05:34;;;;;;;5.25;3.30;;;;;;;;;;6214008;28;20058;-76
2023/06/24 09:08:39;;;;;;;6.00;3.35;;;;;;;;;;6207245;28;20062;-75
2023/06/24 09:11:41;;;;;;;4.07;3.28;;;;;;;;;;6215858;28;20292;-79
2023/06/24 09:14:43;;;;;;;7.18;3.50;;;;;;;;;;6214030;28;20052;-76
2023/06/24 09:17:46;;;;;;;6.00;3.60;;;;;;;;;;6216161;28;20056;-75
2023/06/24 09:20:49;;;;;;;6.22;3.92;;;;;;;;;;6216234;28;20049;-76
2023/06/24 09:23:54;;;;;;;5.63;3.70;;;;;;;;;;6214570;28;20057;-75
2023/06/24 09:26:58;;;;;;;4.38;3.50;;;;;;;;;;6213488;28;20050;-75
2023/06/24 09:29:59;;;;;;;5.95;3.53;;;;;;;;;;6216984;28;20049;-76
2023/06/24 09:33:01;;;;;;;6.47;3.85;;;;;;;;;;6216963;28;20046;-76
2023/06/24 09:36:05;;;;;;;7.47;3.88;;;;;;;;;;6222441;28;20069;-76
2023/06/24 09:39:08;;;;;;;9.65;4.22;;;;;;;;;;6220766;28;20382;-76
2023/06/24 09:42:11;;;;;;;6.30;3.90;;;;;;;;;;6217524;28;20050;-76
2023/06/24 09:45:13;;;;;;;7.60;3.55;;;;;;;;;;6219542;28;20073;-76
2023/06/24 09:48:15;;;;;;;6.75;3.50;;;;;;;;;;6216478;28;20068;-75
2023/06/24 09:51:17;;;;;;;4.47;3.67;;;;;;;;;;6221481;28;20339;-75
2023/06/24 09:54:21;;;;;;;4.43;3.70;;;;;;;;;;6217852;28;20058;-75
2023/06/24 09:57:26;;;;;;;6.35;3.83;;;;;;;;;;6218252;28;20060;-75
2023/06/24 10:00:28;;;;;;;8.18;4.68;;;;;;;;;;6216992;28;20100;-77
2023/06/24 10:03:30;;;;;;;7.93;4.22;;;;;;;;;;6219923;28;20054;-76
2023/06/24 10:06:33;;;;;;;4.65;3.50;;;;;;;;;;6215651;28;20046;-76
2023/06/24 10:09:36;;;;;;;5.38;4.30;;;;;;;;;;6220321;28;20117;-76
2023/06/24 10:12:37;;;;;;;6.82;4.28;;;;;;;;;;6220266;28;20039;-75
2023/06/24 10:15:39;;;;;;;5.28;4.05;;;;;;;;;;6219702;28;20052;-75
2023/06/24 10:18:41;;;;;;;4.95;3.92;;;;;;;;;;6219041;28;20100;-76
2023/06/24 10:21:47;;;;;;;6.25;3.88;;;;;;;;;;6218068;28;20400;-76
2023/06/24 10:24:51;;;;;;;4.63;3.75;;;;;;;;;;6216323;28;20085;-76
2023/06/24 10:27:54;;;;;;;6.82;3.67;;;;;;;;;;6218139;28;20057;-76
2023/06/24 10:30:57;;;;;;;8.45;4.22;;;;;;;;;;6219140;28;20207;-78
2023/06/24 10:33:59;;;;;;;7.28;3.10;;;;;;;;;;6217387;28;20060;-75
2023/06/24 10:37:03;;;;;;;4.95;3.50;;;;;;;;;;6216853;28;20058;-76
2023/06/24 10:40:07;;;;;;;4.25;3.83;;;;;;;;;;6220395;28;20068;-76
2023/06/24 10:43:30;;;;;;;5.13;3.78;;;;;;;;;;6217752;28;20064;-76
2023/06/24 10:46:34;;;;;;;6.13;3.88;;;;;;;;;;6215126;28;20065;-75
2023/06/24 10:49:36;;;;;;;4.35;3.30;;;;;;;;;;6217537;28;20084;-75
2023/06/24 10:52:39;;;;;;;5.47;3.50;;;;;;;;;;6220035;28;20056;-76
2023/06/24 10:55:42;;;;;;;6.22;4.13;;;;;;;;;;6219267;28;20061;-77
2023/06/24 10:58:56;;;;;;;6.70;4.15;;;;;;;;;;6217363;28;20274;-75
2023/06/24 11:01:58;;;;;;;5.82;3.95;;;;;;;;;;6216294;28;20054;-75
2023/06/24 11:05:00;;;;;;;9.52;3.75;;;;;;;;;;6215971;28;20050;-76
2023/06/24 11:08:02;;;;;;;4.70;3.50;;;;;;;;;;6215586;28;20369;-76
2023/06/24 11:11:07;;;;;;;4.60;3.70;;;;;;;;;;6219205;28;20425;-77
2023/06/24 11:14:09;;;;;;;5.13;3.83;;;;;;;;;;6214694;28;20108;-76
2023/06/24 11:17:10;;;;;;;;;;;;;;;;;;6216780;28;20062;-77
2023/06/24 11:20:13;;;;;;;6.35;4.13;;;;;;;;;;6221821;28;19933;-78
2023/06/24 11:23:15;;;;;;;4.75;3.63;;;;;;;;;;6218549;28;20247;-76
2023/06/24 11:26:18;;;;;;;5.00;4.15;;;;;;;;;;6216738;28;20045;-77
2023/06/24 11:29:20;;;;;;;5.53;3.78;;;;;;;;;;6216740;28;20350;-76
2023/06/24 11:32:22;;;;;;;4.80;4.18;;;;;;;;;;6212465;28;20115;-75
2023/06/24 11:35:24;;;;;;;6.47;3.88;;;;;;;;;;6215160;28;20339;-77
2023/06/24 11:38:31;;;;;;;5.95;4.20;;;;;;;;;;6214791;28;20057;-76
2023/06/24 11:41:34;;;;;;;6.35;3.58;;;;;;;;;;6220333;28;20045;-76
2023/06/24 11:44:37;;;;;;;6.25;3.90;;;;;;;;;;6217864;28;20045;-76
2023/06/24 11:47:40;;;;;;;4.35;3.95;;;;;;;;;;6217598;28;20053;-76
2023/06/24 11:50:41;;;;;;;5.55;3.88;;;;;;;;;;6217136;28;20062;-77
2023/06/24 11:53:44;;;;;;;5.15;4.13;;;;;;;;;;6217844;28;20057;-76
2023/06/24 11:56:52;;;;;;;4.97;3.60;;;;;;;;;;6214404;28;20054;-75
2023/06/24 11:59:54;;;;;;;4.78;3.85;;;;;;;;;;6217125;28;20140;-75
2023/06/24 12:02:57;;;;;;;5.97;3.92;;;;;;;;;;6215339;28;20113;-76
2023/06/24 12:05:58;;;;;;;6.47;4.03;;;;;;;;;;6216128;28;20265;-77
2023/06/24 12:09:00;;;;;;;;;;;;;;;;;;6212912;28;20234;-76
2023/06/24 12:12:03;;;;;;;6.00;3.72;;;;;;;;;;6216314;28;20165;-76
2023/06/24 12:15:06;;;;;;;6.47;4.38;;;;;;;;;;6215299;28;20054;-76
2023/06/24 12:18:08;;;;;;;4.20;3.58;;;;;;;;;;6214055;28;20073;-76
2023/06/24 12:21:11;;;;;;;6.30;4.30;;;;;;;;;;6217288;28;20061;-76
2023/06/24 12:24:13;;;;;;;8.52;4.78;;;;;;;;;;6213259;28;20377;-76
2023/06/24 12:27:16;;;;;;;5.45;4.10;;;;;;;;;;6212737;28;20603;-75
2023/06/24 12:30:18;;;;;;;5.30;4.07;;;;;;;;;;6217281;28;20049;-76
2023/06/24 12:33:20;;;;;;;8.93;4.20;;;;;;;;;;6215729;28;20057;-76
2023/06/24 12:36:22;;;;;;;4.70;4.20;;;;;;;;;;6214215;28;20270;-76
2023/06/24 12:39:24;;;;;;;6.22;4.32;;;;;;;;;;6214136;28;20077;-76
2023/06/24 12:42:28;;;;;;;5.60;4.38;;;;;;;;;;6211632;28;20061;-75
2023/06/24 12:45:29;;;;;;;10.25;4.70;;;;;;;;;;6213602;28;21121;-76
2023/06/24 12:48:31;;;;;;;6.90;4.00;;;;;;;;;;6214306;28;20058;-75
2023/06/24 12:51:33;;;;;;;5.65;3.70;;;;;;;;;;6217134;28;20041;-76
2023/06/24 12:54:34;;;;;;;4.50;3.90;;;;;;;;;;6212868;28;20056;-75
2023/06/24 12:57:38;;;;;;;7.30;3.85;;;;;;;;;;6212839;28;20050;-78
2023/06/24 13:00:40;;;;;;;6.10;3.88;;;;;;;;;;6215151;28;20077;-76
2023/06/24 13:03:41;;;;;;;7.00;4.20;;;;;;;;;;6213896;28;20060;-79
2023/06/24 13:06:43;;;;;;;4.57;3.22;;;;;;;;;;6212878;28;20064;-75
2023/06/24 13:09:44;;;;;;;;;;;;;;;;;;6217389;28;20057;-76
2023/06/24 13:12:47;;;;;;;5.45;4.07;;;;;;;;;;6216100;28;20118;-76
2023/06/24 13:15:49;;;;;;;5.60;4.20;;;;;;;;;;6212345;28;20046;-76
2023/06/24 13:18:51;;;;;;;5.88;3.65;;;;;;;;;;6212344;28;20254;-76
2023/06/24 13:21:53;;;;;;;4.68;3.97;;;;;;;;;;6216139;28;20056;-76
2023/06/24 13:24:55;;;;;;;6.40;3.97;;;;;;;;;;6215016;28;20054;-76
2023/06/24 13:27:58;;;;;;;5.28;3.88;;;;;;;;;;6213964;28;20368;-76
2023/06/24 13:31:00;;;;;;;7.63;4.28;;;;;;;;;;6215012;28;20097;-76
2023/06/24 13:34:02;;;;;;;5.80;4.00;;;;;;;;;;6214062;28;20062;-76
2023/06/24 13:37:07;;;;;;;7.43;3.85;;;;;;;;;;6214382;28;20117;-77
2023/06/24 13:40:10;;;;;;;3.85;3.45;;;;;;;;;;6216692;28;20061;-76
2023/06/24 13:43:13;;;;;;;4.18;3.55;;;;;;;;;;6212858;28;20320;-75
2023/06/24 13:46:14;;;;;;;7.72;4.03;;;;;;;;;;6214293;28;20065;-76
2023/06/24 13:49:17;;;;;;;5.72;3.80;;;;;;;;;;6217001;28;20156;-76
2023/06/24 13:52:18;;;;;;;5.63;3.35;;;;;;;;;;6215726;28;20050;-76
2023/06/24 13:55:20;;;;;;;7.18;3.70;;;;;;;;;;6213323;28;20065;-76
2023/06/24 13:58:24;;;;;;;8.32;3.88;;;;;;;;;;6212886;28;20058;-76
2023/06/24 14:01:28;;;;;;;8.35;3.58;;;;;;;;;;6214933;28;20088;-77
2023/06/24 14:04:30;;;;;;;8.35;3.50;;;;;;;;;;6212849;28;20078;-75
2023/06/24 14:07:31;;;;;;;5.32;3.83;;;;;;;;;;6213168;28;20046;-77
2023/06/24 14:10:33;;;;;;;4.63;3.45;;;;;;;;;;6216305;28;20107;-75
2023/06/24 14:13:37;;;;;;;4.38;3.80;;;;;;;;;;6214016;28;20080;-76
2023/06/24 14:16:38;;;;;;;5.40;3.88;;;;;;;;;;6220342;28;20105;-76
2023/06/24 14:19:41;;;;;;;4.80;3.95;;;;;;;;;;6219709;28;20333;-76
2023/06/24 14:22:43;;;;;;;4.70;3.90;;;;;;;;;;6217334;28;20061;-76
2023/06/24 14:25:45;;;;;;;4.32;3.80;;;;;;;;;;6220121;28;20161;-75
2023/06/24 14:28:48;;;;;;;5.50;3.83;;;;;;;;;;6216648;28;20064;-76
2023/06/24 14:31:49;;;;;;;8.15;4.18;;;;;;;;;;6218730;28;20049;-77
2023/06/24 14:34:51;;;;;;;5.30;3.42;;;;;;;;;;6216722;28;20045;-76
2023/06/24 14:37:53;;;;;;;4.65;3.88;;;;;;;;;;6219452;28;20049;-76
2023/06/24 14:40:55;;;;;;;5.82;3.80;;;;;;;;;;6216604;28;20062;-76
2023/06/24 14:43:59;;;;;;;6.82;4.13;;;;;;;;;;6216509;28;20046;-76
2023/06/24 14:47:00;;;;;;;5.82;4.10;;;;;;;;;;6219119;28;20057;-76
2023/06/24 14:50:03;;;;;;;4.27;3.47;;;;;;;;;;6218108;28;20632;-76
2023/06/24 14:53:05;;;;;;;7.35;3.85;;;;;;;;;;6217435;28;20219;-76
2023/06/24 14:56:07;;;;;;;5.57;3.70;;;;;;;;;;6216724;28;20046;-75
2023/06/24 14:59:10;;;;;;;5.63;3.13;;;;;;;;;;6218394;28;20050;-76
2023/06/24 15:02:11;;;;;;;4.18;3.45;;;;;;;;;;6216060;28;21553;-76
2023/06/24 15:05:13;;;;;;;4.63;3.42;;;;;;;;;;6215099;28;20084;-76
2023/06/24 15:08:15;;;;;;;4.93;3.30;;;;;;;;;;6213598;28;20061;-77
2023/06/24 15:11:16;;;;;;;5.70;3.30;;;;;;;;;;6220336;28;20052;-77
2023/06/24 15:14:20;;;;;;;5.63;3.88;;;;;;;;;;6217599;28;20050;-76
2023/06/24 15:17:22;;;;;;;5.50;3.78;;;;;;;;;;6214797;28;20334;-76
2023/06/24 15:20:24;;;;;;;6.88;3.95;;;;;;;;;;6216258;28;20260;-76
2023/06/24 15:23:26;;;;;;;5.00;3.87;;;;;;;;;;6219456;28;20349;-75
2023/06/24 15:26:28;;;;;;;5.18;4.05;;;;;;;;;;6217375;28;20050;-77
2023/06/24 15:29:31;;;;;;;8.77;4.10;;;;;;;;;;6218084;28;20060;-76
2023/06/24 15:32:32;;;;;;;6.78;3.58;;;;;;;;;;6217089;28;20062;-76
2023/06/24 15:35:34;;;;;;;6.47;3.80;;;;;;;;;;6219705;28;20352;-76
2023/06/24 15:38:36;;;;;;;8.25;4.05;;;;;;;;;;6216161;28;20058;-77
2023/06/24 15:41:38;;;;;;;8.60;4.00;;;;;;;;;;6218763;28;20054;-76
2023/06/24 15:44:42;;;;;;;9.47;4.17;;;;;;;;;;6216283;28;20058;-76
2023/06/24 15:47:44;;;;;;;6.18;3.90;;;;;;;;;;6217342;28;20506;-75
2023/06/24 15:50:45;;;;;;;4.55;3.45;;;;;;;;;;6217546;28;20050;-75
2023/06/24 15:53:47;;;;;;;7.20;3.57;;;;;;;;;;6218222;28;20113;-76
2023/06/24 15:56:49;;;;;;;7.28;3.80;;;;;;;;;;6212571;28;20093;-76
2023/06/24 15:59:52;;;;;;;5.88;3.80;;;;;;;;;;6217002;28;20046;-76
2023/06/24 16:02:54;;;;;;;7.57;3.58;;;;;;;;;;6215988;28;20045;-76
2023/06/24 16:05:55;;;;;;;8.03;3.70;;;;;;;;;;6217149;28;20058;-76
2023/06/24 16:08:57;;;;;;;4.83;3.70;;;;;;;;;;6214396;28;20050;-76
2023/06/24 16:11:59;;;;;;;6.50;3.53;;;;;;;;;;6218678;28;20097;-75
2023/06/24 16:15:02;;;;;;;4.82;3.90;;;;;;;;;;6215342;28;20058;-76
2023/06/24 16:18:04;;;;;;;4.50;3.45;;;;;;;;;;6215536;28;20066;-75
2023/06/24 16:21:06;;;;;;;6.23;3.33;;;;;;;;;;6213987;28;20050;-76
2023/06/24 16:24:08;;;;;;;5.63;4.17;;;;;;;;;;6213872;28;20058;-75
2023/06/24 16:27:10;;;;;;;5.00;3.70;;;;;;;;;;6214913;28;20058;-75
2023/06/24 16:30:13;;;;;;;7.07;3.42;;;;;;;;;;6215730;28;20058;-77
2023/06/24 16:33:15;;;;;;;6.43;3.67;;;;;;;;;;6214264;28;20346;-78
2023/06/24 16:36:17;;;;;;;5.78;3.38;;;;;;;;;;6199923;28;20056;-76
2023/06/24 16:39:19;;;;;;;9.68;3.78;;;;;;;;;;6212650;28;20330;-75
2023/06/24 16:42:21;;;;;;;4.53;3.17;;;;;;;;;;6215309;28;20041;-76
2023/06/24 16:45:24;;;;;;;3.73;3.17;;;;;;;;;;6212705;28;20053;-76
2023/06/24 16:48:29;;;;;;;4.82;3.33;;;;;;;;;;6215612;28;20527;-75
2023/06/24 16:51:31;;;;;;;11.30;3.47;;;;;;;;;;6216315;28;20053;-77
2023/06/24 16:54:32;;;;;;;6.45;3.15;;;;;;;;;;6214751;28;20066;-76
2023/06/24 16:57:34;;;;;;;6.38;3.17;;;;;;;;;;6215942;28;20054;-75
2023/06/24 17:00:37;;;;;;;5.93;3.30;;;;;;;;;;6212999;28;20057;-75
2023/06/24 17:03:39;;;;;;;6.05;3.08;;;;;;;;;;6216422;28;20215;-76
2023/06/24 17:06:41;;;;;;;3.83;3.30;;;;;;;;;;6204768;28;20066;-75
2023/06/24 17:09:42;;;;;;;4.50;3.17;;;;;;;;;;6215991;28;20050;-75
2023/06/24 17:12:44;;;;;;;4.57;3.08;;;;;;;;;;6213506;28;20054;-75
2023/06/24 17:15:47;;;;;;;3.70;2.67;;;;;;;;;;6212510;28;20251;-75
2023/06/24 17:18:49;;;;;;;5.05;2.80;;;;;;;;;;6211988;28;20065;-75
2023/06/24 17:21:51;;;;;;;4.38;3.08;;;;;;;;;;6216802;28;20054;-78
2023/06/24 17:24:52;;;;;;;4.10;2.95;;;;;;;;;;6212395;28;20242;-77
2023/06/24 17:27:54;;;;;;;4.28;2.83;;;;;;;;;;6216696;28;20223;-76
2023/06/24 17:30:57;;;;;;;6.15;3.40;;;;;;;;;;6213198;28;20273;-75
2023/06/24 17:34:00;;;;;;;4.82;3.33;;;;;;;;;;6213793;28;20050;-76
2023/06/24 17:37:01;;;;;;;3.90;2.97;;;;;;;;;;6213634;28;20054;-77
2023/06/24 17:40:04;;;;;;;4.32;2.70;;;;;;;;;;6214399;28;20113;-75
2023/06/24 17:43:05;;;;;;;4.97;3.35;;;;;;;;;;6214008;28;21002;-75
2023/06/24 17:46:09;;;;;;;5.20;2.88;;;;;;;;;;6213529;28;20050;-76
2023/06/24 17:49:10;;;;;;;4.32;2.65;;;;;;;;;;6212968;28;20053;-75
2023/06/24 17:52:12;;;;;;;3.13;2.50;;;;;;;;;;6219609;28;20069;-76
2023/06/24 17:55:14;;;;;;;3.13;2.28;;;;;;;;;;6219412;28;20349;-76
2023/06/24 17:58:15;;;;;;;3.67;2.35;;;;;;;;;;6218106;28;20066;-76
2023/06/24 18:01:18;;;;;;;4.82;2.72;;;;;;;;;;6216596;28;20065;-76
2023/06/24 18:04:20;;;;;;;4.28;2.47;;;;;;;;;;6215455;28;20060;-76
2023/06/24 18:07:22;;;;;;;3.53;2.45;;;;;;;;;;6217719;28;20342;-75
2023/06/24 18:10:23;;;;;;;5.35;2.50;;;;;;;;;;6216231;28;20333;-76
2023/06/24 18:13:25;;;;;;;7.35;2.72;;;;;;;;;;6220360;28;20050;-75
2023/06/24 18:16:28;;;;;;;4.88;2.28;;;;;;;;;;6220772;28;20301;-75
2023/06/24 18:19:30;;;;;;;5.15;2.60;;;;;;;;;;6223579;28;20390;-76